Time;durP1;ratioP1;P1;durP2;ratioP2;P2;SDS_P1;SDS_P2;PMS_P1;PMS_P2;Temp;Humidity;BMP_temperature;BMP_pressure;BME280_temperature;BME280_humidity;BME280_pressure;Samples;Min_cycle;Max_cycle;Signal;HPM_P1;HPM_P2
2022/09/24 00:01:19;;;;;;;46.20;5.03;;;13.00;99.90;;;;;;6142556;29;20192;-68
2022/09/24 00:04:27;;;;;;;8.15;3.92;;;13.00;99.90;;;;;;6162052;28;20247;-67
2022/09/24 00:07:31;;;;;;;10.55;4.30;;;13.00;99.90;;;;;;6159003;28;20534;-68
2022/09/24 00:10:38;;;;;;;9.73;4.30;;;13.00;99.90;;;;;;6132980;29;20326;-67
2022/09/24 00:13:42;;;;;;;5.72;4.00;;;13.00;99.90;;;;;;6118244;29;20239;-67
2022/09/24 00:16:47;;;;;;;6.72;4.40;;;13.00;99.90;;;;;;6118622;29;20189;-66
2022/09/24 00:19:52;;;;;;;10.25;4.30;;;12.90;99.90;;;;;;6118069;29;20208;-66
2022/09/24 00:22:56;;;;;;;4.28;3.88;;;12.90;99.90;;;;;;6126405;29;20232;-67
2022/09/24 00:29:25;;;;;;;4.25;4.10;;;12.90;99.90;;;;;;6141196;28;20236;-67
2022/09/24 00:32:29;;;;;;;4.35;3.92;;;12.90;99.90;;;;;;6141465;29;20344;-67
2022/09/24 00:35:36;;;;;;;5.30;4.13;;;12.90;99.90;;;;;;6141906;29;20188;-67
2022/09/24 00:38:40;;;;;;;4.10;3.67;;;12.90;99.90;;;;;;6141342;29;20235;-67
2022/09/24 00:41:47;;;;;;;6.95;4.32;;;13.00;99.90;;;;;;6141197;29;20254;-67
2022/09/24 00:44:54;;;;;;;4.20;4.00;;;13.00;99.90;;;;;;6117591;29;20243;-67
2022/09/24 00:47:59;;;;;;;4.45;4.15;;;13.00;99.90;;;;;;6126188;29;20232;-67
2022/09/24 00:51:05;;;;;;;4.03;3.72;;;12.90;99.90;;;;;;6141023;29;20469;-66
2022/09/24 00:54:14;;;;;;;6.25;4.40;;;12.90;99.90;;;;;;6140886;28;20232;-67
2022/09/24 00:57:19;;;;;;;4.18;3.78;;;12.90;99.90;;;;;;6140530;29;20228;-68
2022/09/24 01:00:23;;;;;;;4.03;3.85;;;12.90;99.90;;;;;;6141270;29;20192;-67
2022/09/24 01:03:28;;;;;;;5.65;3.80;;;13.00;99.90;;;;;;6140545;29;20466;-67
2022/09/24 01:06:34;;;;;;;3.92;3.63;;;12.90;99.90;;;;;;6141375;29;20259;-68
2022/09/24 01:09:38;;;;;;;5.25;4.28;;;13.00;99.90;;;;;;6141949;29;20252;-68
2022/09/24 01:12:49;;;;;;;3.97;3.63;;;12.90;99.90;;;;;;6164475;28;20303;-68
2022/09/24 01:16:01;;;;;;;3.85;3.65;;;13.00;99.90;;;;;;6164862;28;20187;-67
2022/09/24 01:19:18;;;;;;;3.97;3.83;;;12.90;99.90;;;;;;6164059;28;20412;-67
2022/09/24 01:22:37;;;;;;;4.28;4.07;;;12.90;99.90;;;;;;6164090;28;20227;-67
2022/09/24 01:25:47;;;;;;;3.55;3.45;;;12.90;99.90;;;;;;6163584;29;20188;-67
2022/09/24 01:29:09;;;;;;;4.32;4.05;;;13.00;99.90;;;;;;6163884;28;20251;-67
2022/09/24 01:32:21;;;;;;;4.22;3.80;;;12.90;99.90;;;;;;6164126;28;20254;-67
2022/09/24 01:35:31;;;;;;;6.82;3.28;;;12.90;99.90;;;;;;6163965;28;20471;-67
2022/09/24 01:38:40;;;;;;;3.95;3.58;;;12.90;99.90;;;;;;6163855;28;20605;-67
2022/09/24 01:41:46;;;;;;;3.58;3.30;;;12.90;99.90;;;;;;6163974;29;20478;-68
2022/09/24 01:44:51;;;;;;;5.43;3.42;;;12.90;99.90;;;;;;6163977;28;20294;-67
2022/09/24 01:47:56;;;;;;;3.00;2.88;;;12.80;99.90;;;;;;6162826;29;20276;-67
2022/09/24 01:51:07;;;;;;;4.63;3.40;;;12.80;99.90;;;;;;6164276;29;20291;-68
2022/09/24 01:54:18;;;;;;;5.57;3.35;;;12.80;99.90;;;;;;6165230;28;20252;-68
2022/09/24 01:57:25;;;;;;;3.03;2.92;;;12.80;99.90;;;;;;6168774;28;20234;-67
2022/09/24 02:00:31;;;;;;;3.28;3.00;;;12.80;99.90;;;;;;6169106;29;20238;-68
2022/09/24 02:03:45;;;;;;;4.93;3.30;;;12.80;99.90;;;;;;6168662;28;20234;-68
2022/09/24 02:06:55;;;;;;;3.30;3.10;;;12.70;99.90;;;;;;6169048;28;20259;-66
2022/09/24 02:09:59;;;;;;;5.30;3.20;;;12.70;99.90;;;;;;6164017;28;20248;-67
2022/09/24 02:13:07;;;;;;;3.53;2.60;;;12.80;99.90;;;;;;6144696;29;20232;-67
2022/09/24 02:16:15;;;;;;;5.07;2.92;;;12.80;99.90;;;;;;6144949;29;20259;-66
2022/09/24 02:19:25;;;;;;;3.17;2.72;;;12.80;99.90;;;;;;6144374;29;20287;-68
2022/09/24 02:22:30;;;;;;;3.40;2.90;;;12.80;99.90;;;;;;6144265;29;20224;-67
2022/09/24 02:25:42;;;;;;;3.47;2.80;;;12.90;99.90;;;;;;6144381;29;20475;-67
2022/09/24 02:28:46;;;;;;;3.00;2.80;;;12.80;99.90;;;;;;6143987;29;20426;-67
2022/09/24 02:31:52;;;;;;;3.17;2.70;;;12.80;99.90;;;;;;6144763;29;20264;-67
2022/09/24 02:35:01;;;;;;;2.95;2.75;;;12.80;99.90;;;;;;6120687;29;20279;-67
2022/09/24 02:38:05;;;;;;;3.67;3.38;;;12.80;99.90;;;;;;6129895;29;20238;-67
2022/09/24 02:41:10;;;;;;;2.88;2.72;;;12.80;99.90;;;;;;6143960;29;20522;-67
2022/09/24 02:44:15;;;;;;;2.90;2.88;;;12.90;99.90;;;;;;6143903;29;20232;-67
2022/09/24 02:47:20;;;;;;;3.33;2.95;;;12.80;99.90;;;;;;6142798;29;20271;-67
2022/09/24 02:50:25;;;;;;;3.45;3.25;;;12.80;99.90;;;;;;6142731;29;20483;-67
2022/09/24 02:53:29;;;;;;;3.20;3.00;;;12.80;99.90;;;;;;6143662;29;20302;-67
2022/09/24 02:56:33;;;;;;;3.50;2.70;;;12.90;99.90;;;;;;6143844;29;20211;-67
2022/09/24 02:59:38;;;;;;;3.70;2.90;;;12.80;99.90;;;;;;6143222;29;20231;-67
2022/09/24 03:02:42;;;;;;;3.22;3.05;;;12.90;99.90;;;;;;6145475;29;20255;-67
2022/09/24 03:05:48;;;;;;;3.40;3.30;;;12.90;99.90;;;;;;6159907;28;20389;-67
2022/09/24 03:08:53;;;;;;;3.38;3.10;;;12.90;99.90;;;;;;6142881;29;20299;-67
2022/09/24 03:11:59;;;;;;;3.20;3.05;;;12.90;99.90;;;;;;6161097;29;20304;-67
2022/09/24 03:15:04;;;;;;;2.90;2.80;;;12.90;99.90;;;;;;6145397;28;20550;-67
2022/09/24 03:18:12;;;;;;;4.03;2.97;;;12.90;99.90;;;;;;6149960;28;20247;-67
2022/09/24 03:21:20;;;;;;;3.53;3.22;;;12.80;99.90;;;;;;6119888;29;20200;-67
2022/09/24 03:24:24;;;;;;;6.18;3.15;;;12.90;99.90;;;;;;6119366;29;20259;-67
2022/09/24 03:27:28;;;;;;;3.72;3.35;;;12.80;99.90;;;;;;6118868;29;20263;-68
2022/09/24 03:34:10;;;;;;;3.42;3.10;;;12.80;99.90;;;;;;6069987;29;20285;-68
2022/09/24 03:37:16;;;;;;;3.30;3.00;;;12.90;99.90;;;;;;6085227;29;20229;-67
2022/09/24 03:40:21;;;;;;;5.97;3.53;;;12.80;99.90;;;;;;6163631;29;20223;-67
2022/09/24 03:43:26;;;;;;;5.30;3.20;;;12.90;99.90;;;;;;6166217;28;20233;-68
2022/09/24 03:46:30;;;;;;;10.40;3.42;;;12.80;99.90;;;;;;6166372;29;20267;-68
2022/09/24 03:49:34;;;;;;;4.15;2.75;;;12.80;99.90;;;;;;6165909;28;20310;-68
2022/09/24 03:52:40;;;;;;;4.75;3.47;;;12.80;99.90;;;;;;6165780;28;20435;-67
2022/09/24 03:55:45;;;;;;;3.08;2.80;;;12.80;99.90;;;;;;6166489;29;20258;-68
2022/09/24 03:58:49;;;;;;;4.70;3.83;;;12.80;99.90;;;;;;6165931;28;20231;-67
2022/09/24 04:01:54;;;;;;;3.00;2.90;;;12.80;99.90;;;;;;6166034;28;20195;-67
2022/09/24 04:04:58;;;;;;;3.83;3.17;;;12.80;99.90;;;;;;6165953;28;20246;-67
2022/09/24 04:08:05;;;;;;;5.85;2.83;;;12.70;99.90;;;;;;6165569;28;20231;-67
2022/09/24 04:11:10;;;;;;;3.53;3.00;;;12.80;99.90;;;;;;6151869;28;20258;-68
2022/09/24 04:14:15;;;;;;;3.85;2.70;;;12.80;99.90;;;;;;6141517;29;20542;-67
2022/09/24 04:17:19;;;;;;;3.22;2.90;;;12.80;99.90;;;;;;6141696;29;20195;-67
2022/09/24 04:20:25;;;;;;;2.78;2.67;;;12.80;99.90;;;;;;6141911;29;20212;-67
2022/09/24 04:23:31;;;;;;;2.72;2.63;;;12.80;99.90;;;;;;6141419;28;20232;-67
2022/09/24 04:26:35;;;;;;;3.05;2.80;;;12.80;99.90;;;;;;6141831;29;20276;-67
2022/09/24 04:29:40;;;;;;;2.83;2.63;;;12.80;99.90;;;;;;6141504;29;20231;-67
2022/09/24 04:32:44;;;;;;;5.03;3.00;;;12.80;99.90;;;;;;6141550;29;20300;-67
2022/09/24 04:35:48;;;;;;;3.13;2.88;;;12.80;99.90;;;;;;6141298;29;20196;-67
2022/09/24 04:38:55;;;;;;;4.43;2.90;;;12.90;99.90;;;;;;6141091;29;20247;-67
2022/09/24 04:41:59;;;;;;;2.97;2.88;;;12.80;99.90;;;;;;6141627;29;20263;-67
2022/09/24 04:45:04;;;;;;;2.95;2.72;;;12.90;99.90;;;;;;6141134;29;20235;-67
2022/09/24 04:48:11;;;;;;;3.20;2.90;;;12.90;99.90;;;;;;6141260;29;20235;-67
2022/09/24 04:51:18;;;;;;;8.25;3.00;;;12.90;99.90;;;;;;6141430;29;20232;-68
2022/09/24 04:54:24;;;;;;;3.30;3.00;;;12.90;99.90;;;;;;6140852;29;20424;-67
2022/09/24 04:57:31;;;;;;;2.88;2.65;;;12.90;99.90;;;;;;6140802;29;20227;-67
2022/09/24 05:00:36;;;;;;;2.90;2.72;;;12.90;99.90;;;;;;6141359;29;20192;-67
2022/09/24 05:03:40;;;;;;;3.00;2.90;;;12.90;99.90;;;;;;6140853;29;20236;-67
2022/09/24 05:06:44;;;;;;;2.88;2.67;;;12.90;99.90;;;;;;6141227;29;20215;-67
2022/09/24 05:09:49;;;;;;;3.20;3.10;;;12.90;99.90;;;;;;6143302;29;20343;-67
2022/09/24 05:12:54;;;;;;;3.20;3.10;;;12.90;99.90;;;;;;6164403;28;20237;-67
2022/09/24 05:15:59;;;;;;;3.35;3.15;;;12.90;99.90;;;;;;6164536;29;20191;-67
2022/09/24 05:19:04;;;;;;;3.10;2.92;;;12.90;99.90;;;;;;6164164;28;20231;-67
2022/09/24 05:22:10;;;;;;;3.47;2.95;;;12.90;99.90;;;;;;6164241;29;20192;-67
2022/09/24 05:25:18;;;;;;;2.70;2.63;;;12.90;99.90;;;;;;6164250;28;20231;-67
2022/09/24 05:28:21;;;;;;;4.85;3.00;;;12.90;99.90;;;;;;6163833;28;20239;-68
2022/09/24 05:31:25;;;;;;;3.95;2.92;;;12.90;99.90;;;;;;6164095;28;20556;-67
2022/09/24 05:34:30;;;;;;;5.07;3.00;;;13.00;99.90;;;;;;6164042;28;20351;-67
2022/09/24 05:37:34;;;;;;;3.08;2.88;;;13.00;99.90;;;;;;6164065;28;20196;-68
2022/09/24 05:40:49;;;;;;;4.38;3.13;;;13.00;99.90;;;;;;6164180;29;20191;-68
2022/09/24 05:43:57;;;;;;;2.92;2.83;;;13.00;99.90;;;;;;6163826;28;20243;-68
2022/09/24 05:47:01;;;;;;;2.72;2.67;;;13.00;99.90;;;;;;6163228;29;20254;-67
2022/09/24 05:50:07;;;;;;;4.45;2.80;;;13.00;99.90;;;;;;6163691;28;20462;-68
2022/09/24 05:53:14;;;;;;;3.20;3.00;;;13.10;99.90;;;;;;6164100;28;20247;-68
2022/09/24 05:56:20;;;;;;;2.80;2.50;;;13.10;99.90;;;;;;6164292;28;20188;-68
2022/09/24 05:59:24;;;;;;;2.70;2.60;;;13.10;99.90;;;;;;6163724;28;20259;-67
2022/09/24 06:02:28;;;;;;;5.45;3.08;;;13.20;99.90;;;;;;6163581;28;20259;-68
2022/09/24 06:05:33;;;;;;;3.08;2.88;;;13.20;99.90;;;;;;6164111;29;20191;-67
2022/09/24 06:08:37;;;;;;;2.70;2.60;;;13.30;99.90;;;;;;6163698;28;20230;-67
2022/09/24 06:11:43;;;;;;;2.85;2.65;;;13.30;99.90;;;;;;6145780;29;20240;-67
2022/09/24 06:14:47;;;;;;;3.17;2.97;;;13.30;99.90;;;;;;6139828;29;20231;-67
2022/09/24 06:17:54;;;;;;;3.67;2.78;;;13.30;99.90;;;;;;6139673;29;20299;-67
2022/09/24 06:21:02;;;;;;;3.80;3.20;;;13.30;99.90;;;;;;6139786;29;20279;-67
2022/09/24 06:24:07;;;;;;;3.67;3.35;;;13.30;99.90;;;;;;6139476;29;20263;-67
2022/09/24 06:27:12;;;;;;;3.15;2.85;;;13.30;99.90;;;;;;6139716;29;20530;-67
2022/09/24 06:30:17;;;;;;;3.08;2.97;;;13.30;99.90;;;;;;6139488;29;20298;-67
2022/09/24 06:33:22;;;;;;;8.35;3.40;;;13.40;99.90;;;;;;6139080;29;20530;-67
2022/09/24 06:36:26;;;;;;;3.40;3.30;;;13.50;99.90;;;;;;6139527;29;20352;-67
2022/09/24 06:39:30;;;;;;;3.72;3.42;;;13.50;99.90;;;;;;6139962;29;20294;-67
2022/09/24 06:42:36;;;;;;;3.88;3.58;;;13.60;99.90;;;;;;6143282;29;20192;-67
2022/09/24 06:45:41;;;;;;;3.35;3.03;;;13.60;99.90;;;;;;6142785;29;20259;-67
2022/09/24 06:48:48;;;;;;;3.60;3.30;;;13.70;99.90;;;;;;6143349;29;20232;-67
2022/09/24 06:51:54;;;;;;;3.65;3.35;;;13.70;99.90;;;;;;6143751;29;20287;-67
2022/09/24 06:54:59;;;;;;;4.20;3.58;;;13.70;99.90;;;;;;6143679;29;20508;-67
2022/09/24 06:58:07;;;;;;;3.22;3.10;;;13.80;99.90;;;;;;6143526;29;20227;-67
2022/09/24 07:01:11;;;;;;;3.55;3.45;;;13.80;99.90;;;;;;6144042;29;20224;-67
2022/09/24 07:04:15;;;;;;;3.40;3.30;;;13.80;99.90;;;;;;6143164;29;20245;-67
2022/09/24 07:07:33;;;;;;;3.78;3.50;;;13.80;99.90;;;;;;6142412;29;20227;-67
2022/09/24 07:10:38;;;;;;;3.13;3.03;;;13.90;99.90;;;;;;6152661;29;20239;-67
2022/09/24 07:13:44;;;;;;;3.60;3.40;;;13.90;99.90;;;;;;6155972;28;20526;-67
2022/09/24 07:16:48;;;;;;;3.40;3.30;;;13.90;99.90;;;;;;6143763;29;20228;-67
2022/09/24 07:19:52;;;;;;;3.42;3.22;;;14.00;99.90;;;;;;6162961;28;20646;-67
2022/09/24 07:22:57;;;;;;;3.38;3.17;;;14.10;99.90;;;;;;6161589;28;20541;-67
2022/09/24 07:26:01;;;;;;;3.70;3.40;;;14.10;99.90;;;;;;6143373;29;20193;-67
2022/09/24 07:29:07;;;;;;;3.75;3.50;;;14.10;99.90;;;;;;6156675;28;20274;-67
2022/09/24 07:32:16;;;;;;;3.67;3.38;;;14.20;99.90;;;;;;6166979;29;20219;-67
2022/09/24 07:35:20;;;;;;;5.40;3.47;;;14.30;99.90;;;;;;6142710;28;20239;-67
2022/09/24 07:38:25;;;;;;;3.47;3.15;;;14.40;99.90;;;;;;6150977;28;20227;-67
2022/09/24 07:41:30;;;;;;;8.68;3.10;;;14.40;99.90;;;;;;6166448;28;20226;-68
2022/09/24 07:44:36;;;;;;;3.67;2.83;;;14.50;99.90;;;;;;6148708;28;20232;-67
2022/09/24 07:47:41;;;;;;;3.42;3.08;;;14.60;99.90;;;;;;6145329;28;20245;-67
2022/09/24 07:50:45;;;;;;;4.05;3.05;;;14.70;99.90;;;;;;6165779;28;20187;-67
2022/09/24 07:53:49;;;;;;;4.40;3.28;;;14.70;99.90;;;;;;6154090;28;20231;-67
2022/09/24 07:56:54;;;;;;;5.80;3.00;;;14.80;99.90;;;;;;6142307;29;20251;-67
2022/09/24 07:59:59;;;;;;;2.50;2.40;;;14.80;99.90;;;;;;6163236;28;20298;-68
2022/09/24 08:03:05;;;;;;;3.70;2.70;;;14.80;99.90;;;;;;6159320;28;20286;-67
2022/09/24 08:06:10;;;;;;;2.67;2.60;;;14.90;99.90;;;;;;6142643;29;20192;-68
2022/09/24 08:09:16;;;;;;;3.85;2.70;;;14.90;99.90;;;;;;6156849;28;20339;-68
2022/09/24 08:12:20;;;;;;;2.78;2.55;;;15.00;99.90;;;;;;6143315;28;20251;-68
2022/09/24 08:15:27;;;;;;;5.00;2.97;;;15.10;99.90;;;;;;6118528;29;20277;-68
2022/09/24 08:18:32;;;;;;;4.10;2.58;;;15.10;99.90;;;;;;6127313;29;20428;-67
2022/09/24 08:21:39;;;;;;;3.70;2.58;;;15.20;99.90;;;;;;6142239;29;20297;-67
2022/09/24 08:24:43;;;;;;;3.03;2.40;;;15.20;99.90;;;;;;6141721;29;20236;-67
2022/09/24 08:27:47;;;;;;;2.72;2.50;;;15.30;99.90;;;;;;6141514;29;20295;-68
2022/09/24 08:30:53;;;;;;;3.70;3.45;;;15.30;99.90;;;;;;6140973;29;20188;-67
2022/09/24 08:33:58;;;;;;;3.10;2.80;;;15.30;99.90;;;;;;6141009;29;20279;-67
2022/09/24 08:37:02;;;;;;;3.20;2.97;;;15.40;99.90;;;;;;6141840;29;20259;-67
2022/09/24 08:40:09;;;;;;;5.15;2.83;;;15.40;99.90;;;;;;6141388;29;20238;-68
2022/09/24 08:43:28;;;;;;;5.40;3.00;;;15.40;99.90;;;;;;6141178;29;20236;-68
2022/09/24 08:50:14;;;;;;;2.60;2.50;;;15.40;99.90;;;;;;6141180;29;20238;-67
2022/09/24 08:53:23;;;;;;;6.25;2.47;;;15.50;99.90;;;;;;6140650;29;20227;-67
2022/09/24 08:56:31;;;;;;;2.47;2.33;;;15.50;99.90;;;;;;6140622;29;20211;-66
2022/09/24 08:59:36;;;;;;;2.22;2.20;;;15.50;99.90;;;;;;6140282;29;20303;-66
2022/09/24 09:02:48;;;;;;;2.22;2.22;;;15.50;99.90;;;;;;6140546;29;20255;-67
2022/09/24 09:05:55;;;;;;;3.45;3.15;;;15.50;99.90;;;;;;6140745;29;20188;-66
2022/09/24 09:09:04;;;;;;;4.75;2.60;;;15.60;99.90;;;;;;6140354;29;20308;-67
2022/09/24 09:12:16;;;;;;;3.03;2.30;;;15.50;99.90;;;;;;6162424;29;20388;-67
2022/09/24 09:15:24;;;;;;;7.45;2.72;;;15.50;99.90;;;;;;6140597;28;20232;-67
2022/09/24 09:18:36;;;;;;;2.50;2.38;;;15.50;99.90;;;;;;6149322;28;20246;-69
2022/09/24 09:21:43;;;;;;;2.13;2.00;;;15.50;99.90;;;;;;6163157;29;20188;-66
2022/09/24 09:24:50;;;;;;;2.50;2.30;;;15.50;99.90;;;;;;6144719;28;20307;-66
2022/09/24 09:28:00;;;;;;;2.42;2.22;;;15.50;99.90;;;;;;6144142;28;20233;-68
2022/09/24 09:31:10;;;;;;;2.78;2.20;;;15.50;99.90;;;;;;6164367;29;20239;-67
2022/09/24 09:34:36;;;;;;;1.92;1.88;;;15.60;99.90;;;;;;6148747;28;20236;-68
2022/09/24 09:37:44;;;;;;;1.95;1.95;;;15.60;99.90;;;;;;6142053;28;20387;-67
2022/09/24 09:40:55;;;;;;;2.28;2.17;;;15.60;99.90;;;;;;6163911;28;20266;-67
2022/09/24 09:44:02;;;;;;;2.40;2.30;;;15.60;99.90;;;;;;6150621;28;20282;-67
2022/09/24 09:47:34;;;;;;;3.53;3.22;;;15.60;99.90;;;;;;6140378;29;20195;-67
2022/09/24 09:50:44;;;;;;;4.05;2.40;;;15.60;99.90;;;;;;6139989;29;20223;-67
2022/09/24 09:53:57;;;;;;;2.10;1.90;;;15.70;99.90;;;;;;6139479;29;20231;-66
2022/09/24 09:57:03;;;;;;;2.80;1.83;;;15.80;99.90;;;;;;6139936;29;20189;-67
2022/09/24 10:00:17;;;;;;;2.25;2.00;;;15.80;99.90;;;;;;6139827;29;20232;-68
2022/09/24 10:03:24;;;;;;;3.20;2.42;;;15.90;99.90;;;;;;6139997;29;20243;-68
2022/09/24 10:06:32;;;;;;;3.03;1.98;;;16.00;99.90;;;;;;6139914;29;20255;-68
2022/09/24 10:09:37;;;;;;;2.47;2.03;;;16.00;99.90;;;;;;6136830;29;20355;-66
2022/09/24 10:12:41;;;;;;;4.30;1.88;;;16.00;99.90;;;;;;6118607;29;20243;-69
2022/09/24 10:15:51;;;;;;;3.80;1.83;;;16.20;99.90;;;;;;6142780;29;20278;-67
2022/09/24 10:18:55;;;;;;;1.92;1.80;;;16.20;99.90;;;;;;6144237;28;20232;-67
2022/09/24 10:22:09;;;;;;;3.97;2.17;;;16.20;99.90;;;;;;6144402;29;20194;-67
2022/09/24 10:25:19;;;;;;;2.00;1.92;;;16.30;99.90;;;;;;6144045;29;20287;-67
2022/09/24 10:31:47;;;;;;;2.20;2.00;;;16.30;99.90;;;;;;6144534;29;20188;-67
2022/09/24 10:34:56;;;;;;;2.38;1.80;;;16.30;99.90;;;;;;6144023;29;20244;-67
2022/09/24 10:38:13;;;;;;;2.05;1.60;;;16.30;99.90;;;;;;6143840;29;20545;-67
2022/09/24 10:41:26;;;;;;;2.08;1.73;;;16.30;99.90;;;;;;6144015;29;20195;-67
2022/09/24 10:44:37;;;;;;;1.75;1.70;;;16.30;99.90;;;;;;6143922;29;20306;-67
2022/09/24 10:47:46;;;;;;;2.65;2.08;;;16.40;99.90;;;;;;6141281;29;25752;-67
2022/09/24 10:50:57;;;;;;;2.25;2.10;;;16.30;99.90;;;;;;6120202;29;20484;-67
2022/09/24 10:54:21;;;;;;;2.15;1.85;;;16.40;99.90;;;;;;6119781;29;20259;-67
2022/09/24 10:57:32;;;;;;;3.58;2.10;;;16.50;99.90;;;;;;6120482;29;20256;-67
2022/09/24 11:00:40;;;;;;;5.50;1.70;;;16.60;99.90;;;;;;6143614;29;20219;-68
2022/09/24 11:04:22;;;;;;;1.98;1.70;;;16.70;99.90;;;;;;6143235;28;20497;-68
2022/09/24 11:07:45;;;;;;;1.85;1.75;;;16.80;99.90;;;;;;6133735;29;20203;-67
2022/09/24 11:11:16;;;;;;;2.30;1.90;;;16.80;99.90;;;;;;6153824;29;20234;-66
2022/09/24 11:14:36;;;;;;;2.13;2.03;;;16.90;99.90;;;;;;6166783;28;20242;-66
2022/09/24 11:17:50;;;;;;;2.28;1.75;;;16.90;99.90;;;;;;6166796;28;20255;-68
2022/09/24 11:21:01;;;;;;;4.10;1.60;;;16.90;99.90;;;;;;6167317;28;20195;-67
2022/09/24 11:24:29;;;;;;;5.90;1.80;;;16.90;99.90;;;;;;6166579;28;20235;-68
2022/09/24 11:27:48;;;;;;;2.50;1.70;;;16.90;99.90;;;;;;6166511;28;20195;-68
2022/09/24 11:31:02;;;;;;;2.15;2.05;;;17.00;99.90;;;;;;6165759;29;20255;-67
2022/09/24 11:34:35;;;;;;;1.75;1.58;;;17.10;99.90;;;;;;6166343;28;20242;-67
2022/09/24 11:37:51;;;;;;;1.85;1.60;;;17.10;99.90;;;;;;6166158;28;20280;-67
2022/09/24 11:41:10;;;;;;;4.60;1.60;;;17.20;99.90;;;;;;6167054;28;20188;-67
2022/09/24 11:45:11;;;;;;;1.60;1.50;;;17.20;99.60;;;;;;6166648;28;20316;-67
2022/09/24 11:48:58;;;;;;;3.13;1.90;;;17.20;98.50;;;;;;6156657;28;20234;-67
2022/09/24 11:52:08;;;;;;;2.53;1.58;;;17.20;98.80;;;;;;6166357;28;20428;-67
2022/09/24 11:55:17;;;;;;;2.35;2.13;;;17.20;99.90;;;;;;6166217;28;20298;-67
2022/09/24 11:58:26;;;;;;;4.15;1.73;;;17.20;99.20;;;;;;6166004;28;20514;-68
2022/09/24 12:01:35;;;;;;;2.80;1.90;;;17.20;98.60;;;;;;6166046;29;20188;-68
2022/09/24 12:04:54;;;;;;;2.38;1.90;;;17.30;98.90;;;;;;6165858;28;20261;-68
2022/09/24 12:08:03;;;;;;;1.98;1.88;;;17.30;98.60;;;;;;6165807;28;20227;-68
2022/09/24 12:11:14;;;;;;;2.75;1.55;;;17.30;98.80;;;;;;6152080;28;20243;-68
2022/09/24 12:14:21;;;;;;;4.97;2.40;;;17.10;98.80;;;;;;6141625;29;20531;-68
2022/09/24 12:17:32;;;;;;;5.32;2.25;;;17.10;98.50;;;;;;6141622;29;20188;-68
2022/09/24 12:20:47;;;;;;;3.33;1.77;;;17.20;99.00;;;;;;6141764;29;20263;-67
2022/09/24 12:23:53;;;;;;;2.20;2.10;;;17.10;99.90;;;;;;6141541;29;20306;-68
2022/09/24 12:27:11;;;;;;;2.95;1.85;;;17.00;99.60;;;;;;6141866;29;20216;-68
2022/09/24 12:34:00;;;;;;;2.50;2.15;;;17.00;99.50;;;;;;6141435;29;20232;-68
2022/09/24 12:37:08;;;;;;;6.78;2.08;;;16.90;99.90;;;;;;6141337;29;20188;-66
2022/09/24 12:40:40;;;;;;;5.78;2.13;;;16.80;99.90;;;;;;6141278;29;20299;-66
2022/09/24 12:43:48;;;;;;;2.15;1.95;;;16.90;99.90;;;;;;6140899;29;20360;-67
2022/09/24 12:46:55;;;;;;;3.35;1.63;;;16.80;99.80;;;;;;6141257;29;20434;-67
2022/09/24 12:50:04;;;;;;;1.98;1.70;;;16.80;99.90;;;;;;6141062;29;20299;-67
2022/09/24 12:53:23;;;;;;;2.00;1.73;;;16.80;99.90;;;;;;6139584;29;20306;-67
2022/09/24 12:56:29;;;;;;;2.40;2.17;;;16.80;99.90;;;;;;6140752;29;20196;-67
2022/09/24 12:59:33;;;;;;;1.60;1.50;;;16.80;99.70;;;;;;6140834;29;20303;-67
2022/09/24 13:02:46;;;;;;;4.78;1.55;;;16.80;99.90;;;;;;6140699;29;20188;-67
2022/09/24 13:05:52;;;;;;;2.67;1.65;;;16.90;99.90;;;;;;6140849;29;20220;-69
2022/09/24 13:08:56;;;;;;;1.67;1.50;;;16.90;99.90;;;;;;6140215;29;20250;-67
2022/09/24 13:12:21;;;;;;;1.92;1.60;;;16.90;99.90;;;;;;6160925;29;20430;-67
2022/09/24 13:15:34;;;;;;;2.20;1.80;;;17.10;99.90;;;;;;6140825;29;20228;-67
2022/09/24 13:18:39;;;;;;;1.50;1.50;;;17.10;99.90;;;;;;6140498;29;20295;-68
2022/09/24 13:21:54;;;;;;;4.93;1.65;;;17.10;99.90;;;;;;6141027;29;20343;-67
2022/09/24 13:25:28;;;;;;;2.00;1.90;;;17.20;99.90;;;;;;6139968;29;20494;-67
2022/09/24 13:28:38;;;;;;;5.90;1.55;;;17.20;99.90;;;;;;6086148;29;20644;-67
2022/09/24 13:31:51;;;;;;;4.32;1.55;;;17.20;99.90;;;;;;6164215;28;20455;-68
2022/09/24 13:34:55;;;;;;;2.72;1.70;;;17.30;99.90;;;;;;6164165;28;20258;-67
2022/09/24 13:38:07;;;;;;;3.40;1.75;;;17.20;99.90;;;;;;6158886;28;20409;-67
2022/09/24 13:41:24;;;;;;;3.25;1.70;;;17.20;99.90;;;;;;6140608;29;20275;-68
2022/09/24 13:44:31;;;;;;;3.13;1.40;;;17.20;99.60;;;;;;6156823;28;20286;-67
2022/09/24 13:47:41;;;;;;;2.90;1.80;;;17.30;99.90;;;;;;6162200;28;20195;-67
2022/09/24 13:50:50;;;;;;;4.55;1.90;;;17.30;99.90;;;;;;6139292;29;20251;-67
2022/09/24 13:54:03;;;;;;;3.03;1.95;;;17.30;99.90;;;;;;6152325;28;20238;-67
2022/09/24 13:57:13;;;;;;;4.00;1.73;;;17.30;99.90;;;;;;6163779;29;20532;-67
2022/09/24 14:00:20;;;;;;;2.45;1.70;;;17.30;99.80;;;;;;6140754;28;20299;-67
2022/09/24 14:03:28;;;;;;;1.55;1.33;;;17.30;98.80;;;;;;6148183;28;20230;-67
2022/09/24 14:06:36;;;;;;;6.63;1.60;;;17.30;99.70;;;;;;6164124;29;20259;-67
2022/09/24 14:09:43;;;;;;;2.83;1.63;;;17.30;99.60;;;;;;6143278;28;20243;-68
2022/09/24 14:12:47;;;;;;;4.53;1.70;;;17.40;98.90;;;;;;6115991;29;20299;-68
2022/09/24 14:15:57;;;;;;;1.77;1.20;;;17.30;99.90;;;;;;6115688;29;20220;-69
2022/09/24 14:19:03;;;;;;;1.60;1.45;;;17.30;98.90;;;;;;6129096;29;20235;-67
2022/09/24 14:22:16;;;;;;;5.68;1.70;;;17.30;99.70;;;;;;6139680;29;20192;-67
2022/09/24 14:25:27;;;;;;;3.70;1.70;;;17.30;98.50;;;;;;6139460;28;20324;-67
2022/09/24 14:28:33;;;;;;;2.10;1.95;;;17.30;98.60;;;;;;6139236;29;20307;-67
2022/09/24 14:31:47;;;;;;;3.15;2.13;;;17.30;99.00;;;;;;6140167;29;20195;-68
2022/09/24 14:34:54;;;;;;;5.53;2.30;;;17.30;99.10;;;;;;6139625;29;20238;-67
2022/09/24 14:38:05;;;;;;;1.92;1.85;;;17.20;99.90;;;;;;6139168;29;20295;-66
2022/09/24 14:41:18;;;;;;;3.30;1.92;;;17.20;99.90;;;;;;6139814;29;20212;-67
2022/09/24 14:44:24;;;;;;;3.05;2.10;;;17.20;99.90;;;;;;6139223;29;20593;-67
2022/09/24 14:47:31;;;;;;;6.32;2.10;;;17.10;99.90;;;;;;6139470;29;20196;-67
2022/09/24 14:50:39;;;;;;;4.00;2.42;;;17.10;99.90;;;;;;6139722;29;20188;-67
2022/09/24 14:53:43;;;;;;;2.42;2.22;;;17.00;99.90;;;;;;6139370;29;20302;-67
2022/09/24 14:56:49;;;;;;;2.20;2.10;;;16.90;99.70;;;;;;6139907;29;20235;-66
2022/09/24 14:59:53;;;;;;;4.82;2.65;;;16.90;99.90;;;;;;6138981;29;20491;-66
2022/09/24 15:03:00;;;;;;;3.17;2.60;;;16.90;99.90;;;;;;6143150;29;20232;-67
2022/09/24 15:06:17;;;;;;;4.35;3.00;;;16.80;99.90;;;;;;6143606;29;20518;-68
2022/09/24 15:09:25;;;;;;;5.90;3.17;;;16.80;99.90;;;;;;6143484;29;20307;-68
2022/09/24 15:12:33;;;;;;;5.32;3.05;;;16.70;99.90;;;;;;6141009;29;20188;-68
2022/09/24 15:15:38;;;;;;;4.10;3.17;;;16.70;99.90;;;;;;6142499;29;20464;-67
2022/09/24 15:18:43;;;;;;;3.42;2.90;;;16.60;99.90;;;;;;6142160;29;20238;-66
2022/09/24 15:21:48;;;;;;;2.83;2.60;;;16.60;99.90;;;;;;6142286;29;20188;-67
2022/09/24 15:24:53;;;;;;;2.85;2.63;;;16.50;99.90;;;;;;6141972;29;20236;-66
2022/09/24 15:28:05;;;;;;;3.95;2.83;;;16.50;99.90;;;;;;6141312;29;20247;-66
2022/09/24 15:31:10;;;;;;;7.45;3.65;;;16.50;99.90;;;;;;6142146;29;20188;-66
2022/09/24 15:34:14;;;;;;;11.40;5.13;;;16.50;99.90;;;;;;6141704;29;20295;-67
2022/09/24 15:37:25;;;;;;;17.20;5.40;;;16.40;99.90;;;;;;6141635;29;20216;-68
2022/09/24 15:40:34;;;;;;;11.73;5.40;;;16.40;99.90;;;;;;6141632;29;20263;-68
2022/09/24 15:43:40;;;;;;;10.55;4.72;;;16.40;99.90;;;;;;6141428;29;20227;-67
2022/09/24 15:46:46;;;;;;;8.85;4.10;;;16.20;99.90;;;;;;6141526;29;20471;-66
2022/09/24 15:49:51;;;;;;;7.35;3.35;;;16.20;99.90;;;;;;6141601;29;20295;-67
2022/09/24 15:52:58;;;;;;;6.15;3.50;;;16.20;99.90;;;;;;6141067;29;20586;-68
2022/09/24 15:56:03;;;;;;;3.17;2.45;;;16.10;99.90;;;;;;6141809;29;20212;-68
2022/09/24 15:59:14;;;;;;;2.47;2.28;;;16.00;99.90;;;;;;6141212;29;20287;-67
2022/09/24 16:02:21;;;;;;;2.15;2.05;;;15.90;99.90;;;;;;6141218;29;20418;-68
2022/09/24 16:05:26;;;;;;;7.25;2.58;;;16.00;99.90;;;;;;6141084;29;20503;-68
2022/09/24 16:08:30;;;;;;;3.08;2.25;;;15.90;99.90;;;;;;6141069;28;20247;-68
2022/09/24 16:11:34;;;;;;;2.40;2.20;;;15.90;99.90;;;;;;6113375;28;1322122;-68
2022/09/24 16:14:40;;;;;;;3.95;2.50;;;15.90;99.90;;;;;;6164441;29;20294;-66
2022/09/24 16:17:45;;;;;;;2.67;2.33;;;15.90;99.90;;;;;;6165418;28;20403;-67
2022/09/24 16:20:49;;;;;;;2.45;2.35;;;15.80;99.90;;;;;;6165239;29;20187;-68
2022/09/24 16:23:54;;;;;;;3.00;2.65;;;15.80;99.90;;;;;;6165439;28;20282;-68
2022/09/24 16:27:00;;;;;;;6.20;2.50;;;15.80;99.90;;;;;;6166176;29;20195;-68
2022/09/24 16:30:07;;;;;;;7.70;3.20;;;15.70;99.90;;;;;;6165395;28;20235;-67
2022/09/24 16:33:17;;;;;;;5.28;2.60;;;15.60;99.90;;;;;;6165263;28;20542;-68
2022/09/24 16:36:22;;;;;;;2.80;2.65;;;15.60;99.90;;;;;;6165442;29;20402;-68